Aviation Digital Data Service (ADDS)

Output produced by METARs form (1046 UTC 25 October 2020)
found at http://aviationweather.gov/metar/data/
 
METAR text: KJOT 251035Z AUTO 02006KT 10SM OVC026 05/01 A3021 RMK AO2 T00530010
Conditions at: KJOT (JOLIET , IL, US) observed 1035 UTC 25 October 2020
Temperature: 5.3°C (42°F)
Dewpoint: 1.0°C (34°F) [RH = 74%]
Pressure (altimeter): 30.21 inches Hg (1023.1 mb)
Winds: from the NNE (20 degrees) at 7 MPH (6 knots; 3.1 m/s)
Visibility: 10 or more miles (16+ km)
Ceiling: 2600 feet AGL
Clouds: overcast cloud deck at 2600 feet AGL
Weather: automated observation with no human augmentation;
there may or may not be significant weather present at this time